Time;durP1;ratioP1;P1;durP2;ratioP2;P2;SDS_P1;SDS_P2;PMS_P1;PMS_P2;Temp;Humidity;BMP_temperature;BMP_pressure;BME280_temperature;BME280_humidity;BME280_pressure;Samples;Min_cycle;Max_cycle;Signal;HPM_P1;HPM_P2
2022/11/28 00:00:20;;;;;;;66.70;39.90;;;;;;;3.20;90.89;101572.86;104653;1312;172455;-70
2022/11/28 00:03:14;;;;;;;75.00;44.70;;;;;;;3.22;90.97;101575.48;104768;1312;37173;-72
2022/11/28 00:05:53;;;;;;;69.40;40.90;;;;;;;3.22;91.04;101575.81;104759;1312;37510;-71
2022/11/28 00:08:26;;;;;;;70.70;42.60;;;;;;;3.26;91.25;101578.63;104783;1310;37231;-73
2022/11/28 00:11:06;;;;;;;72.80;42.30;;;;;;;3.27;91.20;101576.05;104794;1312;37136;-72
2022/11/28 00:13:41;;;;;;;67.60;41.20;;;;;;;3.28;91.46;101571.58;104737;1308;36964;-71
2022/11/28 00:16:21;;;;;;;65.30;39.30;;;;;;;3.26;91.10;101570.69;104772;1311;37246;-71
2022/11/28 00:18:59;;;;;;;64.00;39.10;;;;;;;3.24;91.09;101567.55;104775;1309;38393;-72
2022/11/28 00:21:35;;;;;;;75.00;43.20;;;;;;;3.25;91.09;101565.69;104811;1312;38759;-71
2022/11/28 00:24:09;;;;;;;72.10;40.90;;;;;;;3.27;91.31;101566.05;104746;1313;37133;-70
2022/11/28 00:26:44;;;;;;;68.10;40.30;;;;;;;3.28;91.34;101564.33;104788;1312;37026;-71
2022/11/28 00:29:18;;;;;;;66.40;39.00;;;;;;;3.25;90.88;101563.43;104766;1312;37162;-71
2022/11/28 00:31:52;;;;;;;60.40;35.60;;;;;;;3.20;90.82;101561.48;104765;1313;37374;-71
2022/11/28 00:34:26;;;;;;;69.10;41.20;;;;;;;3.16;90.61;101561.77;104809;1311;37724;-72
2022/11/28 00:37:00;;;;;;;71.30;42.50;;;;;;;3.16;90.90;101561.77;104779;1311;36980;-72
2022/11/28 00:39:34;;;;;;;70.00;41.60;;;;;;;3.15;90.89;101561.93;104772;1312;38226;-72
2022/11/28 00:42:11;;;;;;;70.50;42.90;;;;;;;3.12;90.83;101561.39;104784;1313;37508;-71
2022/11/28 00:44:46;;;;;;;65.50;38.50;;;;;;;3.10;91.11;101557.74;104772;1310;36998;-72
2022/11/28 00:47:22;;;;;;;68.30;39.20;;;;;;;3.09;91.10;101558.60;104793;1311;37000;-72
2022/11/28 00:49:58;;;;;;;68.10;39.90;;;;;;;3.09;91.10;101559.97;104755;1311;37078;-72
2022/11/28 00:52:37;;;;;;;67.00;37.60;;;;;;;3.11;91.11;101553.11;104781;1310;37288;-73
2022/11/28 00:55:12;;;;;;;69.70;40.80;;;;;;;3.12;91.13;101548.11;104773;1310;37304;-72
2022/11/28 00:57:46;;;;;;;73.00;42.50;;;;;;;3.12;90.98;101555.70;104788;1310;36896;-69
2022/11/28 01:00:23;;;;;;;67.90;39.90;;;;;;;3.08;91.07;101552.90;104766;1310;37020;-71
2022/11/28 01:02:59;;;;;;;70.20;40.40;;;;;;;3.05;90.99;101548.73;104801;1310;37526;-72
2022/11/28 01:05:40;;;;;;;68.10;38.00;;;;;;;3.06;90.97;101549.09;104748;1310;37052;-72
2022/11/28 01:08:16;;;;;;;71.50;39.90;;;;;;;3.07;91.14;101546.17;104817;1310;36977;-71
2022/11/28 01:11:00;;;;;;;73.60;43.20;;;;;;;3.06;90.94;101542.88;104764;1310;36908;-71
2022/11/28 01:13:34;;;;;;;72.50;42.30;;;;;;;3.05;91.03;101542.00;104767;1310;37049;-71
2022/11/28 01:16:08;;;;;;;70.50;41.00;;;;;;;3.02;91.01;101543.17;104756;1310;37031;-70
2022/11/28 01:18:44;;;;;;;63.20;36.80;;;;;;;3.01;90.97;101541.63;104770;1310;35924;-71
2022/11/28 01:21:19;;;;;;;66.00;38.30;;;;;;;3.00;90.81;101542.48;104735;1310;36358;-70
2022/11/28 01:23:53;;;;;;;72.60;39.10;;;;;;;3.00;91.05;101539.86;104738;1310;36064;-71
2022/11/28 01:26:31;;;;;;;72.30;41.30;;;;;;;3.03;91.21;101543.55;104755;1310;37538;-71
2022/11/28 01:29:05;;;;;;;75.80;41.90;;;;;;;3.07;91.32;101539.45;104762;1310;36973;-70
2022/11/28 01:31:42;;;;;;;71.40;40.30;;;;;;;3.07;91.30;101539.45;104788;1310;37088;-71
2022/11/28 01:34:16;;;;;;;76.30;42.30;;;;;;;3.06;91.30;101533.57;104784;1310;37171;-70
2022/11/28 01:36:50;;;;;;;65.10;38.90;;;;;;;3.05;91.01;101528.91;104772;1310;37216;-70
2022/11/28 01:39:24;;;;;;;72.90;42.20;;;;;;;3.05;91.09;101522.71;104760;1310;36965;-72
2022/11/28 01:41:59;;;;;;;70.60;40.10;;;;;;;3.04;91.17;101521.31;104767;1310;37192;-72
2022/11/28 01:45:15;;;;;;;69.40;40.50;;;;;;;3.02;90.98;101517.83;104769;1310;36955;-71
2022/11/28 01:47:49;;;;;;;76.20;41.80;;;;;;;2.96;90.97;101516.05;104816;1310;36030;-71
2022/11/28 01:50:26;;;;;;;63.90;38.30;;;;;;;2.93;91.07;101515.14;104757;1310;37008;-70
2022/11/28 01:53:02;;;;;;;60.50;36.30;;;;;;;2.91;91.02;101509.44;104810;1310;36920;-73
2022/11/28 01:55:38;;;;;;;65.30;37.70;;;;;;;2.92;91.02;101504.63;104646;1311;36680;-71
2022/11/28 01:58:12;;;;;;;65.20;38.80;;;;;;;2.93;91.22;101502.90;104787;1310;37208;-69
2022/11/28 02:00:46;;;;;;;67.50;38.80;;;;;;;2.95;91.36;101502.42;104759;1310;36896;-69
2022/11/28 02:03:23;;;;;;;70.50;42.10;;;;;;;2.98;91.29;101498.65;104758;1310;37006;-73
2022/11/28 02:05:58;;;;;;;70.40;40.00;;;;;;;2.98;91.22;101499.00;104806;1311;37187;-71
2022/11/28 02:08:35;;;;;;;68.30;40.40;;;;;;;2.97;91.26;101494.16;104769;1310;37252;-72
2022/11/28 02:11:55;;;;;;;71.70;41.90;;;;;;;2.97;91.46;101490.38;104767;1310;37341;-71
2022/11/28 02:14:43;;;;;;;62.40;39.30;;;;;;;2.97;91.41;101483.83;104564;1310;37353;-70
2022/11/28 02:17:25;;;;;;;67.30;39.20;;;;;;;2.99;91.43;101487.11;104787;1310;37213;-70
2022/11/28 02:20:27;;;;;;;73.10;40.90;;;;;;;3.00;91.36;101488.34;104767;1311;37141;-71
2022/11/28 02:23:06;;;;;;;72.00;40.70;;;;;;;3.01;91.50;101488.86;104770;1310;35972;-69
2022/11/28 02:25:59;;;;;;;162.30;79.40;;;;;;;3.00;91.47;101489.02;104749;1310;36706;-70
2022/11/28 02:29:06;;;;;;;110.70;55.00;;;;;;;2.99;91.50;101489.35;104751;1311;35922;-70
2022/11/28 02:32:10;;;;;;;93.60;51.20;;;;;;;3.01;91.53;101487.31;104775;1311;37006;-72
2022/11/28 02:34:50;;;;;;;97.60;52.30;;;;;;;3.02;91.59;101484.23;104754;1311;37032;-70
2022/11/28 02:37:29;;;;;;;86.60;48.40;;;;;;;3.04;91.72;101482.52;104826;1309;36044;-71
2022/11/28 02:40:11;;;;;;;96.60;49.00;;;;;;;3.07;91.75;101483.93;104743;1310;36366;-71
2022/11/28 02:42:53;;;;;;;88.40;48.50;;;;;;;3.07;91.61;101479.63;104669;1312;36370;-71
2022/11/28 02:45:34;;;;;;;75.30;43.80;;;;;;;3.05;91.48;101484.09;104772;1309;38518;-69
2022/11/28 02:48:11;;;;;;;60.40;36.40;;;;;;;3.01;91.32;101480.76;104802;1310;37130;-70
2022/11/28 02:50:57;;;;;;;72.70;41.30;;;;;;;2.99;91.31;101477.80;104654;1310;37025;-70
2022/11/28 02:53:43;;;;;;;66.70;40.10;;;;;;;3.01;91.29;101477.51;104777;1311;38159;-71
2022/11/28 02:56:17;;;;;;;74.40;42.90;;;;;;;3.00;91.16;101474.20;104772;1309;36985;-70
2022/11/28 02:58:53;;;;;;;71.30;41.80;;;;;;;2.99;91.50;101474.87;104853;1309;37042;-72
2022/11/28 03:01:38;;;;;;;77.40;46.90;;;;;;;2.98;91.49;101473.66;104884;1309;37139;-70
2022/11/28 03:04:23;;;;;;;66.00;38.70;;;;;;;2.95;91.32;101471.56;104856;1309;36031;-72
2022/11/28 03:07:05;;;;;;;67.90;40.20;;;;;;;2.92;91.19;101474.98;104717;1309;36728;-71
2022/11/28 03:10:04;;;;;;;63.30;37.60;;;;;;;2.92;91.35;101468.95;104865;1309;37225;-72
2022/11/28 03:12:48;;;;;;;63.10;36.80;;;;;;;2.91;91.42;101464.63;104864;1309;37014;-71
2022/11/28 03:15:25;;;;;;;71.30;38.80;;;;;;;2.94;91.66;101463.27;104827;1310;37166;-71
2022/11/28 03:18:07;;;;;;;76.30;44.50;;;;;;;2.93;91.64;101463.44;104872;1309;38611;-71
2022/11/28 03:20:50;;;;;;;71.90;42.50;;;;;;;2.94;91.71;101460.68;104876;1309;36911;-71
2022/11/28 03:23:26;;;;;;;66.00;38.20;;;;;;;2.92;91.52;101457.58;104879;1309;36987;-72
2022/11/28 03:26:07;;;;;;;65.40;38.60;;;;;;;2.91;91.54;101454.27;104791;1310;36974;-71
2022/11/28 03:28:45;;;;;;;56.70;35.20;;;;;;;2.91;91.52;101454.80;104864;1310;36991;-71
2022/11/28 03:31:23;;;;;;;68.60;39.40;;;;;;;2.90;91.29;101458.05;104912;1309;37034;-70
2022/11/28 03:34:05;;;;;;;75.60;43.50;;;;;;;2.87;91.28;101456.31;104894;1309;36920;-70
2022/11/28 03:36:43;;;;;;;82.60;44.50;;;;;;;2.85;91.51;101456.11;104875;1309;38183;-70
2022/11/28 03:39:21;;;;;;;74.80;42.80;;;;;;;2.82;91.39;101455.39;104853;1309;37000;-72
2022/11/28 03:41:57;;;;;;;72.10;44.10;;;;;;;2.80;91.42;101456.90;104871;1309;36913;-72
2022/11/28 03:44:36;;;;;;;67.90;39.50;;;;;;;2.80;91.59;101458.98;104858;1309;37175;-71
2022/11/28 03:47:11;;;;;;;67.80;39.80;;;;;;;2.83;91.80;101459.36;104879;1309;37058;-69
2022/11/28 03:49:50;;;;;;;73.40;44.50;;;;;;;2.87;91.84;101458.73;104822;1305;36639;-71
2022/11/28 03:52:28;;;;;;;76.90;44.50;;;;;;;2.89;91.75;101459.94;104902;1309;37073;-69
2022/11/28 03:55:03;;;;;;;78.50;46.60;;;;;;;2.89;91.64;101461.33;104862;1309;37025;-71
2022/11/28 03:57:41;;;;;;;78.40;45.10;;;;;;;2.88;91.70;101461.84;104768;1309;174639;-70
2022/11/28 04:00:18;;;;;;;76.50;43.60;;;;;;;2.90;91.84;101460.63;104834;1309;36089;-72
2022/11/28 04:02:59;;;;;;;81.40;44.10;;;;;;;2.90;91.94;101458.23;104897;1309;35981;-71
2022/11/28 04:05:39;;;;;;;86.30;46.40;;;;;;;2.93;92.02;101456.02;104881;1309;36442;-72
2022/11/28 04:08:16;;;;;;;82.70;46.80;;;;;;;2.96;91.87;101456.23;104884;1309;37090;-72
2022/11/28 04:10:56;;;;;;;74.20;45.00;;;;;;;2.99;92.20;101453.15;104868;1308;38152;-70
2022/11/28 04:13:35;;;;;;;88.80;47.30;;;;;;;2.98;91.65;101455.39;104853;1308;36991;-72
2022/11/28 04:16:18;;;;;;;82.30;46.60;;;;;;;2.94;91.48;101453.97;104779;1309;174586;-71
2022/11/28 04:18:58;;;;;;;82.80;42.40;;;;;;;2.90;91.46;101454.42;104874;1309;36910;-71
2022/11/28 04:21:38;;;;;;;84.10;45.60;;;;;;;2.89;91.62;101452.36;104894;1309;36999;-71
2022/11/28 04:24:18;;;;;;;70.50;42.70;;;;;;;2.90;91.73;101446.85;104860;1309;37127;-70
2022/11/28 04:26:57;;;;;;;;;;;;;;;2.93;91.91;101444.66;104913;1310;36988;-70
2022/11/28 04:29:35;;;;;;;85.00;47.70;;;;;;;2.92;91.61;101441.54;104887;1309;37034;-72
2022/11/28 04:32:11;;;;;;;100.70;53.60;;;;;;;2.90;91.84;101436.85;104854;1309;37757;-72
2022/11/28 04:34:46;;;;;;;84.00;46.20;;;;;;;2.90;91.96;101437.71;104894;1309;36915;-72
2022/11/28 04:37:20;;;;;;;76.20;41.80;;;;;;;2.89;91.73;101434.27;104881;1309;37062;-72
2022/11/28 04:39:54;;;;;;;71.30;40.70;;;;;;;2.91;91.80;101438.26;104853;1309;37226;-70
2022/11/28 04:42:32;;;;;;;71.90;43.80;;;;;;;2.90;91.56;101435.81;104880;1309;37524;-70
2022/11/28 04:45:14;;;;;;;78.00;44.70;;;;;;;2.91;91.72;101435.84;104864;1309;36984;-71
2022/11/28 04:47:48;;;;;;;79.50;42.30;;;;;;;2.92;91.74;101439.47;104876;1309;36958;-69
2022/11/28 04:50:23;;;;;;;78.50;43.70;;;;;;;2.87;91.47;101443.73;104860;1309;37663;-70
2022/11/28 04:52:59;;;;;;;81.60;43.60;;;;;;;2.86;91.67;101441.98;104878;1308;37647;-70
2022/11/28 04:55:38;;;;;;;80.60;45.10;;;;;;;2.86;91.72;101442.85;104833;1309;37307;-73
2022/11/28 04:58:16;;;;;;;124.70;68.90;;;;;;;2.84;91.41;101439.89;104876;1309;38481;-73
2022/11/28 05:00:52;;;;;;;106.90;55.10;;;;;;;2.84;91.50;101441.11;104868;1310;37013;-70
2022/11/28 05:03:29;;;;;;;84.40;45.30;;;;;;;2.84;91.47;101440.23;104881;1309;36891;-71
2022/11/28 05:06:03;;;;;;;78.40;42.90;;;;;;;2.82;91.42;101442.13;104882;1309;37169;-70
2022/11/28 05:08:37;;;;;;;75.20;42.20;;;;;;;2.79;91.47;101445.19;104877;1309;36978;-72
2022/11/28 05:11:15;;;;;;;80.60;44.80;;;;;;;2.76;91.37;101446.36;104939;1309;38224;-70
2022/11/28 05:13:51;;;;;;;72.50;42.00;;;;;;;2.72;91.43;101449.07;104862;1308;35929;-71
2022/11/28 05:16:28;;;;;;;79.80;42.20;;;;;;;2.68;91.31;101446.61;104600;1310;415291;-71
2022/11/28 05:19:01;;;;;;;77.60;41.30;;;;;;;2.64;91.36;101448.11;104871;1309;37058;-71
2022/11/28 05:21:39;;;;;;;74.00;40.80;;;;;;;2.66;91.71;101444.86;104845;1309;38476;-71
2022/11/28 05:24:13;;;;;;;80.30;43.00;;;;;;;2.66;91.59;101442.11;104875;1309;37178;-71
2022/11/28 05:26:47;;;;;;;77.30;43.40;;;;;;;2.65;91.67;101442.96;104758;1309;36816;-69
2022/11/28 05:29:23;;;;;;;80.00;47.70;;;;;;;2.62;91.62;101441.38;104848;1309;36891;-69
2022/11/28 05:31:57;;;;;;;73.00;39.80;;;;;;;2.59;91.84;101442.55;104872;1309;36903;-71
2022/11/28 05:34:34;;;;;;;66.00;37.30;;;;;;;2.57;91.67;101444.45;104844;1309;38190;-70
2022/11/28 05:37:08;;;;;;;71.20;39.40;;;;;;;2.57;91.63;101444.77;104841;1309;37037;-70
2022/11/28 05:39:53;;;;;;;76.40;40.10;;;;;;;2.56;91.59;101444.75;104834;1309;37415;-71
2022/11/28 05:42:29;;;;;;;71.00;39.50;;;;;;;2.55;91.73;101449.73;104925;1303;37162;-72
2022/11/28 05:45:06;;;;;;;73.40;40.60;;;;;;;2.54;91.56;101454.20;104873;1309;37507;-70
2022/11/28 05:47:41;;;;;;;75.90;40.60;;;;;;;2.52;91.76;101448.68;104847;1309;36917;-72
2022/11/28 05:50:20;;;;;;;69.80;39.30;;;;;;;2.55;92.13;101441.13;104861;1309;37271;-72
2022/11/28 05:52:58;;;;;;;72.90;39.10;;;;;;;2.54;91.76;101440.77;104879;1309;35944;-69
2022/11/28 05:55:35;;;;;;;70.20;38.90;;;;;;;2.54;91.69;101443.00;104838;1306;37004;-71
2022/11/28 05:58:09;;;;;;;70.70;40.30;;;;;;;2.54;91.81;101443.35;104900;1302;36938;-72
2022/11/28 06:00:47;;;;;;;71.90;40.10;;;;;;;2.55;91.76;101441.64;104858;1309;37017;-71
2022/11/28 06:03:25;;;;;;;78.10;40.50;;;;;;;2.52;91.74;101439.89;104805;1310;36838;-71
2022/11/28 06:06:00;;;;;;;66.10;38.60;;;;;;;2.50;91.88;101436.25;104882;1309;35998;-73
2022/11/28 06:08:37;;;;;;;67.50;37.40;;;;;;;2.48;91.61;101437.26;104892;1309;36664;-72
2022/11/28 06:11:14;;;;;;;59.90;33.90;;;;;;;2.47;91.71;101438.96;104867;1309;37314;-72
2022/11/28 06:13:51;;;;;;;62.50;35.70;;;;;;;2.45;91.69;101438.76;104800;1309;37085;-71
2022/11/28 06:16:28;;;;;;;64.70;35.60;;;;;;;2.47;91.66;101436.20;104837;1309;37010;-72
2022/11/28 06:19:05;;;;;;;59.40;35.10;;;;;;;2.45;91.44;101437.04;104832;1309;36131;-71
2022/11/28 06:21:41;;;;;;;65.50;38.20;;;;;;;2.43;91.73;101436.67;104887;1309;38203;-72
2022/11/28 06:24:16;;;;;;;64.70;36.90;;;;;;;2.47;91.91;101436.55;104745;1309;36499;-72
2022/11/28 06:26:53;;;;;;;67.40;35.90;;;;;;;2.46;91.66;101437.39;104865;1307;36563;-71
2022/11/28 06:29:28;;;;;;;64.90;34.50;;;;;;;2.43;91.66;101436.16;104726;1309;188523;-72
2022/11/28 06:32:05;;;;;;;60.30;34.30;;;;;;;2.42;91.74;101437.53;104849;1310;38710;-72
2022/11/28 06:34:39;;;;;;;62.00;35.30;;;;;;;2.46;91.89;101439.45;104851;1309;36613;-70
2022/11/28 06:37:16;;;;;;;61.80;35.30;;;;;;;2.47;91.84;101438.63;104845;1309;36929;-70
2022/11/28 06:39:50;;;;;;;66.80;36.40;;;;;;;2.46;91.70;101438.07;104881;1309;38719;-70
2022/11/28 06:42:27;;;;;;;63.00;32.70;;;;;;;2.46;91.85;101437.56;104884;1309;36836;-72
2022/11/28 06:45:01;;;;;;;64.90;37.10;;;;;;;2.45;91.79;101437.73;104770;1309;172446;-71
2022/11/28 06:47:39;;;;;;;66.30;37.10;;;;;;;2.42;91.83;101435.27;104921;1309;36902;-73
2022/11/28 06:50:15;;;;;;;70.80;39.80;;;;;;;2.38;91.76;101434.21;104796;1309;37749;-73
2022/11/28 06:52:51;;;;;;;72.70;40.20;;;;;;;2.39;91.77;101435.42;104866;1309;37259;-72
2022/11/28 06:55:25;;;;;;;69.80;40.00;;;;;;;2.44;92.09;101439.27;104845;1309;37105;-72
2022/11/28 06:58:01;;;;;;;81.60;41.80;;;;;;;2.51;92.34;101444.02;104871;1309;37029;-71
2022/11/28 07:00:38;;;;;;;77.50;40.10;;;;;;;2.57;92.35;101448.20;104784;1310;40347;-71
2022/11/28 07:03:15;;;;;;;77.70;43.50;;;;;;;2.60;92.30;101448.59;104861;1309;36066;-72
2022/11/28 07:05:57;;;;;;;78.10;43.40;;;;;;;2.59;92.14;101448.23;104863;1309;37552;-71
2022/11/28 07:08:32;;;;;;;67.30;37.60;;;;;;;2.59;92.19;101445.48;104853;1295;36049;-72
2022/11/28 07:11:15;;;;;;;63.60;34.80;;;;;;;2.60;92.04;101453.59;104867;1309;37042;-72
2022/11/28 07:13:50;;;;;;;59.10;35.10;;;;;;;2.63;92.27;101452.77;104861;1309;36873;-72
2022/11/28 07:16:27;;;;;;;59.20;33.50;;;;;;;2.67;92.10;101456.27;104866;1309;38129;-70
2022/11/28 07:19:04;;;;;;;63.60;35.00;;;;;;;2.72;92.18;101453.56;104870;1309;38701;-70
2022/11/28 07:21:40;;;;;;;64.20;35.80;;;;;;;2.76;92.40;101451.02;104847;1309;37174;-72
2022/11/28 07:24:19;;;;;;;68.60;39.30;;;;;;;2.80;92.19;101450.36;104883;1309;35969;-71
2022/11/28 07:26:56;;;;;;;67.00;36.40;;;;;;;2.80;92.02;101450.70;104867;1309;36912;-71
2022/11/28 07:29:38;;;;;;;62.50;34.60;;;;;;;2.79;91.91;101448.63;104863;1309;36988;-77
2022/11/28 07:32:12;;;;;;;60.90;35.50;;;;;;;2.76;91.72;101447.41;104777;1310;36971;-75
2022/11/28 07:34:46;;;;;;;62.70;36.70;;;;;;;2.78;91.85;101444.49;104893;1309;37057;-74
2022/11/28 07:37:22;;;;;;;73.80;38.90;;;;;;;2.79;91.76;101441.92;104883;1309;36974;-73
2022/11/28 07:39:58;;;;;;;69.30;38.70;;;;;;;2.84;91.95;101437.83;104867;1309;36533;-71
2022/11/28 07:42:32;;;;;;;75.90;41.10;;;;;;;2.87;91.85;101442.88;104899;1309;37035;-71
2022/11/28 07:45:08;;;;;;;79.80;42.10;;;;;;;2.85;91.73;101442.48;104754;1309;174578;-69
2022/11/28 07:47:44;;;;;;;71.20;38.80;;;;;;;2.87;91.68;101445.62;104858;1309;36407;-74
2022/11/28 07:50:20;;;;;;;67.90;37.90;;;;;;;2.85;91.35;101447.15;104755;1310;37678;-72
2022/11/28 07:52:54;;;;;;;72.40;40.90;;;;;;;2.91;91.62;101443.23;104892;1309;37001;-72
2022/11/28 07:55:31;;;;;;;63.10;36.10;;;;;;;2.98;91.84;101440.39;104853;1309;36980;-71
2022/11/28 07:58:09;;;;;;;63.00;37.10;;;;;;;3.05;91.70;101442.19;104873;1309;36461;-71
2022/11/28 08:00:46;;;;;;;66.20;36.40;;;;;;;3.08;91.45;101442.56;104853;1309;36898;-72
2022/11/28 08:03:24;;;;;;;64.00;36.30;;;;;;;3.08;91.20;101443.08;104870;1309;38223;-72
2022/11/28 08:06:07;;;;;;;63.10;33.70;;;;;;;3.07;91.17;101440.48;104843;1309;37171;-71
2022/11/28 08:08:44;;;;;;;61.10;35.40;;;;;;;3.08;90.95;101439.80;104859;1309;36914;-71
2022/11/28 08:11:24;;;;;;;54.50;32.70;;;;;;;3.11;90.93;101437.60;104899;1308;36876;-73
2022/11/28 08:14:01;;;;;;;66.30;37.80;;;;;;;3.18;91.11;101441.27;104767;1310;37116;-73
2022/11/28 08:16:39;;;;;;;71.50;39.30;;;;;;;3.26;91.09;101441.35;104816;1310;36913;-72
2022/11/28 08:19:14;;;;;;;69.30;35.90;;;;;;;3.33;90.93;101433.83;104890;1309;36561;-70
2022/11/28 08:21:49;;;;;;;74.60;39.10;;;;;;;3.35;90.40;101435.77;104850;1309;38554;-71
2022/11/28 08:24:26;;;;;;;71.20;38.40;;;;;;;3.37;90.52;101439.04;104858;1309;36771;-70
2022/11/28 08:27:02;;;;;;;68.10;35.00;;;;;;;3.39;90.38;101435.08;104864;1309;36364;-73
2022/11/28 08:29:37;;;;;;;67.20;35.80;;;;;;;3.39;90.04;101438.35;104854;1309;37082;-70
2022/11/28 08:32:11;;;;;;;63.80;37.60;;;;;;;3.32;89.35;101434.86;104850;1309;36995;-73
2022/11/28 08:34:46;;;;;;;65.50;37.80;;;;;;;3.34;89.65;101434.35;104873;1309;37054;-73
2022/11/28 08:37:20;;;;;;;68.20;38.40;;;;;;;3.39;90.20;101434.23;104752;1309;36768;-74
2022/11/28 08:39:54;;;;;;;66.00;37.30;;;;;;;3.45;90.09;101438.94;104870;1309;37287;-71
2022/11/28 08:42:29;;;;;;;64.60;36.90;;;;;;;3.46;90.00;101437.05;104871;1309;36895;-73
2022/11/28 08:45:05;;;;;;;71.60;39.60;;;;;;;3.48;89.76;101435.85;104835;1309;36993;-74
2022/11/28 08:47:39;;;;;;;68.20;38.20;;;;;;;3.50;89.69;101435.70;104857;1309;36926;-72
2022/11/28 08:50:16;;;;;;;69.20;37.60;;;;;;;3.44;89.30;101433.23;104869;1309;37075;-70
2022/11/28 08:52:51;;;;;;;65.40;36.30;;;;;;;3.43;89.41;101432.17;104868;1309;36904;-71
2022/11/28 08:55:27;;;;;;;66.70;36.10;;;;;;;3.49;89.91;101435.51;104862;1309;37520;-71
2022/11/28 08:58:03;;;;;;;57.10;30.70;;;;;;;3.59;90.10;101430.76;104852;1295;38216;-71
2022/11/28 09:00:39;;;;;;;53.70;31.90;;;;;;;3.67;89.33;101433.41;104863;1309;37140;-71
2022/11/28 09:03:15;;;;;;;59.10;34.20;;;;;;;3.72;89.51;101432.76;104854;1310;37001;-73
2022/11/28 09:05:52;;;;;;;56.60;33.10;;;;;;;3.80;89.43;101427.98;104854;1309;37013;-73
2022/11/28 09:08:28;;;;;;;58.90;32.70;;;;;;;3.85;89.26;101424.73;104741;1309;174530;-72
2022/11/28 09:11:04;;;;;;;56.80;33.00;;;;;;;3.93;89.48;101423.74;104911;1309;36939;-72
2022/11/28 09:13:38;;;;;;;58.00;32.70;;;;;;;4.01;89.64;101421.55;104755;1309;172351;-72
2022/11/28 09:16:13;;;;;;;57.60;32.10;;;;;;;4.11;89.42;101416.42;104885;1309;37160;-74
2022/11/28 09:18:47;;;;;;;50.20;31.40;;;;;;;4.23;89.57;101416.83;104863;1307;37152;-74
2022/11/28 09:21:23;;;;;;;55.00;33.40;;;;;;;4.41;89.11;101412.42;104884;1309;36991;-71
2022/11/28 09:24:00;;;;;;;48.40;27.60;;;;;;;4.69;89.46;101405.61;104849;1309;36368;-72
2022/11/28 09:26:34;;;;;;;52.60;30.10;;;;;;;4.88;88.31;101407.02;104904;1309;37008;-70
2022/11/28 09:29:09;;;;;;;48.70;29.20;;;;;;;5.08;88.42;101409.83;104869;1309;37527;-72
2022/11/28 09:31:45;;;;;;;51.60;29.30;;;;;;;5.24;87.64;101409.84;104890;1309;37476;-73
2022/11/28 09:34:20;;;;;;;46.10;27.30;;;;;;;5.34;86.20;101409.32;104903;1309;37003;-73
2022/11/28 09:36:55;;;;;;;45.70;26.30;;;;;;;5.40;86.36;101407.07;104905;1309;37000;-72
2022/11/28 09:39:29;;;;;;;44.20;26.00;;;;;;;5.43;85.47;101400.33;104849;1309;36874;-73
2022/11/28 09:42:11;;;;;;;45.10;26.90;;;;;;;5.45;85.37;101403.96;104897;1309;36997;-74
2022/11/28 09:44:48;;;;;;;41.10;25.50;;;;;;;5.40;83.90;101400.84;104874;1309;38488;-76
2022/11/28 09:47:24;;;;;;;40.30;25.20;;;;;;;5.34;83.56;101398.08;104859;1309;36976;-73
2022/11/28 09:50:00;;;;;;;41.80;24.20;;;;;;;5.27;83.82;101395.48;104877;1309;36910;-72
2022/11/28 09:52:44;;;;;;;38.50;23.10;;;;;;;5.20;82.84;101398.60;104881;1309;37026;-74
2022/11/28 09:55:25;;;;;;;39.00;21.10;;;;;;;5.10;82.15;101397.71;104857;1309;36117;-73
2022/11/28 09:58:00;;;;;;;35.50;20.90;;;;;;;5.04;82.49;101393.22;104867;1309;37225;-76
2022/11/28 10:00:37;;;;;;;36.30;23.00;;;;;;;4.97;81.70;101387.50;104839;1309;37174;-74
2022/11/28 10:03:31;;;;;;;39.00;22.50;;;;;;;4.91;81.89;101386.80;104859;1309;37009;-73
2022/11/28 10:06:12;;;;;;;40.00;24.10;;;;;;;4.86;81.72;101387.48;104874;1309;37130;-72
2022/11/28 10:09:08;;;;;;;39.50;23.30;;;;;;;4.84;82.21;101386.98;104838;1309;36615;-73
2022/11/28 10:11:53;;;;;;;39.40;24.00;;;;;;;4.83;82.33;101381.44;104872;1309;37005;-73
2022/11/28 10:15:01;;;;;;;42.60;24.50;;;;;;;4.84;82.60;101379.02;104866;1309;36565;-73
2022/11/28 10:17:46;;;;;;;41.90;23.70;;;;;;;4.85;82.09;101375.38;104865;1309;37718;-73
2022/11/28 10:20:25;;;;;;;44.00;25.70;;;;;;;4.84;82.01;101365.00;104868;1308;37570;-71
2022/11/28 10:23:01;;;;;;;41.80;26.10;;;;;;;4.82;82.06;101372.09;104866;1306;37052;-74
2022/11/28 10:25:39;;;;;;;45.70;25.80;;;;;;;4.80;81.36;101370.02;104831;1309;36966;-75
2022/11/28 10:28:23;;;;;;;42.60;26.20;;;;;;;4.72;81.79;101367.05;104703;1312;37309;-74
2022/11/28 10:31:02;;;;;;;44.90;27.00;;;;;;;4.67;81.69;101367.39;104803;1310;36364;-74
2022/11/28 10:33:42;;;;;;;43.50;24.90;;;;;;;4.63;82.11;101363.23;104887;1309;36938;-75
2022/11/28 10:36:24;;;;;;;37.80;23.70;;;;;;;4.60;81.98;101366.17;104908;1309;37049;-73
2022/11/28 10:38:59;;;;;;;43.80;26.30;;;;;;;4.58;81.82;101361.33;104869;1306;37179;-73
2022/11/28 10:41:43;;;;;;;43.60;27.30;;;;;;;4.57;82.32;101359.41;104897;1309;37121;-73
2022/11/28 10:44:21;;;;;;;41.60;24.10;;;;;;;4.59;82.67;101358.73;104884;1309;36619;-71
2022/11/28 10:47:03;;;;;;;44.10;27.10;;;;;;;4.60;82.81;101356.84;104851;1309;38108;-71
2022/11/28 10:49:48;;;;;;;42.50;23.30;;;;;;;4.58;81.77;101360.29;104859;1309;37127;-71
2022/11/28 10:52:26;;;;;;;38.50;23.00;;;;;;;4.46;81.79;101355.23;104867;1302;36239;-74
2022/11/28 10:55:20;;;;;;;35.70;23.20;;;;;;;4.42;82.28;101352.46;104853;1309;36971;-71
2022/11/28 10:58:01;;;;;;;35.80;23.00;;;;;;;4.44;82.40;101351.27;104867;1309;36238;-72
2022/11/28 11:00:35;;;;;;;39.20;24.80;;;;;;;4.42;81.96;101355.07;104876;1309;37254;-75
2022/11/28 11:03:13;;;;;;;41.60;24.60;;;;;;;4.35;81.47;101356.25;104881;1309;37320;-73
2022/11/28 11:05:50;;;;;;;45.90;25.10;;;;;;;4.26;81.89;101353.98;104862;1309;37154;-74
2022/11/28 11:08:33;;;;;;;44.10;24.40;;;;;;;4.22;82.34;101353.95;104869;1309;37208;-72
2022/11/28 11:11:17;;;;;;;37.70;23.80;;;;;;;4.18;81.90;101352.22;104863;1309;37140;-72
2022/11/28 11:14:05;;;;;;;37.00;21.60;;;;;;;4.10;82.11;101353.73;104864;1307;37160;-71
2022/11/28 11:16:53;;;;;;;39.00;22.10;;;;;;;4.08;82.29;101348.02;104885;1309;37268;-73
2022/11/28 11:19:32;;;;;;;38.20;24.20;;;;;;;4.11;82.62;101350.29;104768;1309;37018;-73
2022/11/28 11:22:18;;;;;;;35.70;23.10;;;;;;;4.16;82.70;101347.54;104886;1309;37038;-72
2022/11/28 11:27:53;;;;;;;40.30;25.20;;;;;;;4.26;83.34;101347.06;101694;1348;545205;-72
2022/11/28 11:30:30;;;;;;;40.60;23.00;;;;;;;4.26;83.12;101348.10;104196;1319;38977;-72
2022/11/28 11:33:12;;;;;;;39.30;23.60;;;;;;;4.24;82.45;101347.06;104388;1319;36905;-71
2022/11/28 11:38:38;;;;;;;35.70;21.90;;;;;;;4.13;82.49;101347.19;104284;1317;36962;-72
2022/11/28 11:41:32;;;;;;;39.30;23.20;;;;;;;4.09;82.42;101345.45;104034;1316;508406;-72
2022/11/28 11:44:32;;;;;;;39.20;22.80;;;;;;;4.08;82.95;101344.58;104577;1316;37523;-74
2022/11/28 11:47:10;;;;;;;40.40;23.90;;;;;;;4.11;82.88;101352.36;104534;1316;35994;-74
2022/11/28 11:49:47;;;;;;;38.50;22.50;;;;;;;4.06;82.31;101352.00;104535;1316;37032;-73
2022/11/28 11:52:30;;;;;;;38.50;23.20;;;;;;;3.98;82.37;101350.23;104519;1298;37058;-73
2022/11/28 11:55:13;;;;;;;41.60;22.80;;;;;;;3.92;82.68;101355.90;104560;1315;35986;-74
2022/11/28 11:57:53;;;;;;;38.30;22.40;;;;;;;3.88;82.97;101352.94;104536;1316;36911;-71
2022/11/28 12:00:35;;;;;;;40.10;23.50;;;;;;;3.87;83.24;101358.28;104524;1316;37374;-72
2022/11/28 12:03:18;;;;;;;40.30;24.60;;;;;;;3.85;82.77;101358.63;104529;1316;37757;-70
2022/11/28 12:05:59;;;;;;;37.20;22.70;;;;;;;3.78;82.95;101354.78;104541;1316;36119;-72